Time;durP1;ratioP1;P1;durP2;ratioP2;P2;SDS_P1;SDS_P2;PMS_P1;PMS_P2;Temp;Humidity;BMP_temperature;BMP_pressure;BME280_temperature;BME280_humidity;BME280_pressure;Samples;Min_cycle;Max_cycle;Signal;HPM_P1;HPM_P2
2022/05/28 00:01:20;;;;;;;2.67;2.25;;;;;;;;;;4190868;34;20185;-63
2022/05/28 00:32:37;;;;;;;3.78;1.58;;;;;;;;;;4958229;28;20204;-61
2022/05/28 00:35:04;;;;;;;3.45;1.40;;;;;;;;;;4222742;33;20172;-61
2022/05/28 00:37:31;;;;;;;7.37;1.92;;;;;;;;;;4205376;33;20204;-62
2022/05/28 00:39:57;;;;;;;2.12;1.40;;;;;;;;;;4205075;34;20236;-61
2022/05/28 00:42:23;;;;;;;3.65;1.70;;;;;;;;;;4204989;34;20129;-66
2022/05/28 00:44:49;;;;;;;4.30;1.50;;;;;;;;;;4205245;34;20477;-66
2022/05/28 00:47:15;;;;;;;2.30;1.67;;;;;;;;;;4205029;34;20122;-66
2022/05/28 00:49:42;;;;;;;3.00;1.37;;;;;;;;;;4205295;34;20141;-66
2022/05/28 00:52:08;;;;;;;2.20;1.70;;;;;;;;;;4204263;34;20186;-67
2022/05/28 00:54:43;;;;;;;5.03;1.40;;;;;;;;;;4203914;34;20269;-63
2022/05/28 00:57:10;;;;;;;1.97;1.30;;;;;;;;;;4204997;34;20101;-63
2022/05/28 00:59:36;;;;;;;3.28;1.30;;;;;;;;;;4203971;34;20189;-63
2022/05/28 01:02:10;;;;;;;2.92;1.60;;;;;;;;;;4205722;34;20229;-63
2022/05/28 01:04:46;;;;;;;2.53;1.45;;;;;;;;;;4205090;34;20129;-62
2022/05/28 01:07:34;;;;;;;1.75;1.40;;;;;;;;;;4205528;34;20112;-62
2022/05/28 01:10:22;;;;;;;4.60;1.50;;;;;;;;;;4205736;34;20117;-62
2022/05/28 01:12:57;;;;;;;2.53;1.40;;;;;;;;;;4205374;34;20118;-62
2022/05/28 01:15:35;;;;;;;3.95;1.45;;;;;;;;;;4205095;34;20474;-67
2022/05/28 01:18:11;;;;;;;1.70;1.60;;;;;;;;;;4204144;34;20094;-67
2022/05/28 01:20:42;;;;;;;2.10;1.48;;;;;;;;;;4204100;34;20502;-66
2022/05/28 01:23:21;;;;;;;2.60;1.40;;;;;;;;;;4204287;34;20109;-66
2022/05/28 01:26:08;;;;;;;3.60;1.70;;;;;;;;;;4205854;34;20915;-66
2022/05/28 01:28:38;;;;;;;5.12;1.45;;;;;;;;;;4204021;34;20117;-66
2022/05/28 01:31:05;;;;;;;2.92;1.55;;;;;;;;;;4204437;34;20434;-67
2022/05/28 01:33:34;;;;;;;2.10;1.50;;;;;;;;;;4205540;34;20212;-67
2022/05/28 01:36:01;;;;;;;3.75;1.50;;;;;;;;;;4209178;34;20212;-68
2022/05/28 01:38:27;;;;;;;5.57;1.50;;;;;;;;;;4218169;34;20522;-68
2022/05/28 01:40:53;;;;;;;2.45;1.37;;;;;;;;;;4218037;34;20113;-67
2022/05/28 01:43:20;;;;;;;1.55;1.45;;;;;;;;;;4218136;34;20195;-67
2022/05/28 01:45:47;;;;;;;1.48;1.37;;;;;;;;;;4219128;34;20676;-67
2022/05/28 01:48:14;;;;;;;3.05;1.35;;;;;;;;;;4219134;33;20117;-67
2022/05/28 01:50:43;;;;;;;3.42;1.55;;;;;;;;;;4218107;34;20093;-67
2022/05/28 01:54:06;;;;;;;2.35;1.33;;;;;;;;;;4219201;33;20121;-67
2022/05/28 01:56:00;;;;;;;2.53;1.55;;;;;;;;;;4218098;34;20188;-67
2022/05/28 01:58:26;;;;;;;3.40;1.50;;;;;;;;;;4219238;34;20128;-68
2022/05/28 02:00:52;;;;;;;14.40;3.67;;;;;;;;;;4218002;34;20105;-65
2022/05/28 02:03:19;;;;;;;3.30;1.62;;;;;;;;;;4219351;33;20128;-66
2022/05/28 02:05:45;;;;;;;1.60;1.40;;;;;;;;;;4217714;34;20600;-66
2022/05/28 02:08:11;;;;;;;2.80;1.75;;;;;;;;;;4206290;34;20105;-66
2022/05/28 02:10:39;;;;;;;3.40;1.58;;;;;;;;;;4219102;34;20208;-67
2022/05/28 02:13:11;;;;;;;1.50;1.40;;;;;;;;;;4217963;34;20090;-66
2022/05/28 02:15:37;;;;;;;2.97;1.52;;;;;;;;;;4217634;34;20101;-67
2022/05/28 02:18:14;;;;;;;4.95;1.40;;;;;;;;;;4219299;34;20438;-67
2022/05/28 02:20:42;;;;;;;2.67;1.70;;;;;;;;;;4219074;34;20093;-67
2022/05/28 02:24:04;;;;;;;2.50;1.50;;;;;;;;;;4218905;34;20223;-67
2022/05/28 02:26:43;;;;;;;4.35;1.90;;;;;;;;;;4168064;34;20180;-67
2022/05/28 02:29:10;;;;;;;6.90;1.75;;;;;;;;;;4213688;33;20546;-67
2022/05/28 02:31:36;;;;;;;1.90;1.33;;;;;;;;;;4217534;34;20144;-67
2022/05/28 02:34:04;;;;;;;5.35;1.45;;;;;;;;;;4218955;34;20525;-67
2022/05/28 02:36:30;;;;;;;2.17;2.03;;;;;;;;;;4218843;33;20118;-67
2022/05/28 02:38:56;;;;;;;1.52;1.42;;;;;;;;;;4218974;33;20105;-67
2022/05/28 02:41:23;;;;;;;1.73;1.62;;;;;;;;;;4218714;33;20116;-67
2022/05/28 02:43:49;;;;;;;4.10;1.70;;;;;;;;;;4218654;33;20124;-67
2022/05/28 02:46:15;;;;;;;3.78;1.33;;;;;;;;;;4218769;34;20213;-66
2022/05/28 02:48:41;;;;;;;1.60;1.50;;;;;;;;;;4218773;34;20129;-67
2022/05/28 02:51:15;;;;;;;2.72;1.65;;;;;;;;;;4205780;34;20457;-67
2022/05/28 02:53:41;;;;;;;4.03;1.75;;;;;;;;;;4218734;33;20111;-67
2022/05/28 02:56:08;;;;;;;2.17;1.65;;;;;;;;;;4216587;34;20124;-67
2022/05/28 02:58:34;;;;;;;12.95;2.20;;;;;;;;;;4217272;34;20132;-66
2022/05/28 03:01:01;;;;;;;2.45;1.67;;;;;;;;;;4218898;33;20120;-66
2022/05/28 03:03:27;;;;;;;2.03;1.48;;;;;;;;;;4218962;33;20624;-66
2022/05/28 03:05:53;;;;;;;4.70;1.45;;;;;;;;;;4218658;33;20462;-66
2022/05/28 03:08:19;;;;;;;1.98;1.40;;;;;;;;;;4218487;33;20097;-66
2022/05/28 03:10:46;;;;;;;4.85;1.73;;;;;;;;;;4218804;33;20136;-67
2022/05/28 03:13:12;;;;;;;3.00;1.85;;;;;;;;;;4218556;33;20119;-67
2022/05/28 03:15:39;;;;;;;3.12;1.92;;;;;;;;;;4218418;34;20681;-67
2022/05/28 03:18:05;;;;;;;3.78;1.85;;;;;;;;;;4217256;34;20139;-66
2022/05/28 03:20:31;;;;;;;10.15;2.25;;;;;;;;;;4218382;33;20472;-67
2022/05/28 03:22:58;;;;;;;5.57;1.70;;;;;;;;;;4218381;34;20461;-67
2022/05/28 03:25:24;;;;;;;2.58;1.40;;;;;;;;;;4218455;34;20101;-67
2022/05/28 03:27:50;;;;;;;1.35;1.23;;;;;;;;;;4216922;34;20101;-68
2022/05/28 03:30:16;;;;;;;3.95;1.37;;;;;;;;;;4217147;34;20223;-67
2022/05/28 03:32:42;;;;;;;3.92;1.65;;;;;;;;;;4216833;34;20098;-67
2022/05/28 03:35:09;;;;;;;2.78;1.52;;;;;;;;;;4217024;34;20192;-67
2022/05/28 03:37:35;;;;;;;2.83;1.55;;;;;;;;;;4218233;33;20550;-68
2022/05/28 03:40:02;;;;;;;1.80;1.52;;;;;;;;;;4218265;33;20128;-67
2022/05/28 03:42:28;;;;;;;3.08;1.45;;;;;;;;;;4218024;33;20119;-67
2022/05/28 03:44:54;;;;;;;2.25;1.35;;;;;;;;;;4218169;34;20121;-67
2022/05/28 03:47:20;;;;;;;7.80;2.67;;;;;;;;;;4218142;34;20541;-67
2022/05/28 03:49:47;;;;;;;3.15;1.50;;;;;;;;;;4216698;34;20105;-67
2022/05/28 03:52:14;;;;;;;3.95;1.70;;;;;;;;;;4216624;34;20108;-66
2022/05/28 03:54:43;;;;;;;3.53;1.40;;;;;;;;;;4218096;34;20118;-66
2022/05/28 03:57:14;;;;;;;3.95;1.50;;;;;;;;;;4217959;34;20529;-66
2022/05/28 03:59:41;;;;;;;5.62;1.65;;;;;;;;;;4218053;33;20093;-66
2022/05/28 04:02:08;;;;;;;4.00;1.60;;;;;;;;;;4217927;34;20613;-61
2022/05/28 04:04:34;;;;;;;3.50;1.80;;;;;;;;;;4217883;33;20197;-62
2022/05/28 04:07:01;;;;;;;6.93;1.52;;;;;;;;;;4215583;34;20129;-62
2022/05/28 04:09:28;;;;;;;4.30;1.50;;;;;;;;;;4193088;34;20113;-64
2022/05/28 04:11:54;;;;;;;2.22;1.73;;;;;;;;;;4204785;34;20549;-62
2022/05/28 04:14:20;;;;;;;1.40;1.30;;;;;;;;;;4206001;34;20114;-64
2022/05/28 04:16:46;;;;;;;4.70;1.55;;;;;;;;;;4206182;34;20228;-63
2022/05/28 04:19:12;;;;;;;2.95;1.85;;;;;;;;;;4206036;34;20105;-63
2022/05/28 04:21:38;;;;;;;2.65;1.75;;;;;;;;;;4205773;34;20116;-63
2022/05/28 04:24:05;;;;;;;2.87;1.50;;;;;;;;;;4205929;34;20444;-64
2022/05/28 04:26:31;;;;;;;6.35;1.98;;;;;;;;;;4204485;34;20233;-63
2022/05/28 04:28:57;;;;;;;7.43;1.73;;;;;;;;;;4205650;34;20133;-63
2022/05/28 04:31:24;;;;;;;2.60;1.60;;;;;;;;;;4206046;34;20113;-62
2022/05/28 04:33:50;;;;;;;1.77;1.40;;;;;;;;;;4205489;34;20555;-63
2022/05/28 04:36:16;;;;;;;5.43;2.03;;;;;;;;;;4205381;34;20106;-64
2022/05/28 04:38:42;;;;;;;4.95;1.70;;;;;;;;;;4204129;34;20144;-62
2022/05/28 04:41:09;;;;;;;5.93;2.65;;;;;;;;;;4201854;34;20525;-64
2022/05/28 04:43:35;;;;;;;2.72;1.65;;;;;;;;;;4204615;34;20141;-64
2022/05/28 04:46:01;;;;;;;4.70;1.55;;;;;;;;;;4203462;34;20543;-64
2022/05/28 04:48:27;;;;;;;0.93;0.93;;;;;;;;;;4204832;34;20128;-65
2022/05/28 04:50:53;;;;;;;2.78;1.52;;;;;;;;;;4203942;34;20454;-65
2022/05/28 04:53:19;;;;;;;1.33;1.23;;;;;;;;;;4205003;34;20113;-65
2022/05/28 04:55:45;;;;;;;9.32;1.67;;;;;;;;;;4205659;34;20140;-65
2022/05/28 04:58:13;;;;;;;1.52;1.42;;;;;;;;;;4203342;34;20117;-64
2022/05/28 05:00:39;;;;;;;2.30;2.08;;;;;;;;;;4205317;34;20105;-65
2022/05/28 05:03:05;;;;;;;1.15;1.05;;;;;;;;;;4204493;34;20198;-65
2022/05/28 05:05:32;;;;;;;3.55;1.80;;;;;;;;;;4191842;34;20106;-66
2022/05/28 05:07:59;;;;;;;1.30;1.00;;;;;;;;;;4205022;34;20214;-65
2022/05/28 05:10:25;;;;;;;4.35;1.60;;;;;;;;;;4191419;34;20165;-66
2022/05/28 05:12:51;;;;;;;4.00;1.60;;;;;;;;;;4205687;34;20177;-65
2022/05/28 05:15:17;;;;;;;1.65;1.55;;;;;;;;;;4205425;34;20210;-66
2022/05/28 05:17:43;;;;;;;3.87;1.55;;;;;;;;;;4203974;34;20486;-65
2022/05/28 05:20:11;;;;;;;2.40;1.60;;;;;;;;;;4205353;34;20116;-67
2022/05/28 05:22:37;;;;;;;7.75;2.03;;;;;;;;;;4205799;34;20121;-64
2022/05/28 05:25:04;;;;;;;7.68;2.95;;;;;;;;;;4205543;34;20144;-65
2022/05/28 05:27:30;;;;;;;17.02;2.30;;;;;;;;;;4203879;34;20098;-64
2022/05/28 05:29:57;;;;;;;1.50;1.40;;;;;;;;;;4192520;34;20119;-63
2022/05/28 05:32:24;;;;;;;3.92;1.67;;;;;;;;;;4203439;34;20536;-63
2022/05/28 05:34:50;;;;;;;3.62;1.37;;;;;;;;;;4204953;34;20141;-62
2022/05/28 05:37:16;;;;;;;6.15;1.60;;;;;;;;;;4203547;34;20106;-66
2022/05/28 05:39:42;;;;;;;5.72;1.60;;;;;;;;;;4203811;34;20130;-65
2022/05/28 05:42:08;;;;;;;4.07;1.40;;;;;;;;;;4205706;34;20113;-67
2022/05/28 05:44:35;;;;;;;4.62;1.70;;;;;;;;;;4203997;34;20201;-65
2022/05/28 05:47:01;;;;;;;7.95;1.60;;;;;;;;;;4203867;34;20106;-66
2022/05/28 05:49:27;;;;;;;6.57;2.08;;;;;;;;;;4204887;34;20129;-65
2022/05/28 05:51:55;;;;;;;3.17;1.65;;;;;;;;;;4203184;34;20528;-66
2022/05/28 05:54:21;;;;;;;6.60;1.90;;;;;;;;;;4205239;34;20118;-65
2022/05/28 05:56:47;;;;;;;6.53;1.60;;;;;;;;;;4203923;34;20571;-66
2022/05/28 05:59:13;;;;;;;3.65;1.52;;;;;;;;;;4203871;34;20113;-68
2022/05/28 06:01:39;;;;;;;2.05;1.40;;;;;;;;;;4202606;34;20217;-64
2022/05/28 06:04:05;;;;;;;8.90;2.40;;;;;;;;;;4201822;34;20124;-64
2022/05/28 06:06:31;;;;;;;2.83;1.52;;;;;;;;;;4203276;34;20233;-65
2022/05/28 06:08:57;;;;;;;4.20;1.67;;;;;;;;;;4203592;34;20120;-65
2022/05/28 06:11:23;;;;;;;2.35;1.30;;;;;;;;;;4202335;34;20208;-64
2022/05/28 06:13:49;;;;;;;5.97;1.70;;;;;;;;;;4203647;34;20144;-66
2022/05/28 06:16:15;;;;;;;5.55;1.70;;;;;;;;;;4203899;34;20435;-65
2022/05/28 06:18:41;;;;;;;3.75;1.80;;;;;;;;;;4203733;34;20121;-65
2022/05/28 06:21:07;;;;;;;7.35;2.62;;;;;;;;;;4204903;34;20125;-65
2022/05/28 06:23:33;;;;;;;4.90;1.98;;;;;;;;;;4203767;34;20202;-65
2022/05/28 06:25:59;;;;;;;8.48;2.20;;;;;;;;;;4203680;34;20139;-66
2022/05/28 06:28:25;;;;;;;3.17;1.62;;;;;;;;;;4204963;34;20105;-63
2022/05/28 06:30:51;;;;;;;4.95;2.00;;;;;;;;;;4204415;34;20217;-61
2022/05/28 06:33:17;;;;;;;4.15;1.90;;;;;;;;;;4204623;34;20102;-61
2022/05/28 06:35:44;;;;;;;9.15;2.17;;;;;;;;;;4204862;34;20118;-61
2022/05/28 06:38:10;;;;;;;4.62;2.53;;;;;;;;;;4204858;34;20533;-61
2022/05/28 06:40:36;;;;;;;5.03;1.98;;;;;;;;;;4204643;34;20125;-62
2022/05/28 06:43:03;;;;;;;2.97;1.90;;;;;;;;;;4204546;34;20134;-62
2022/05/28 06:45:29;;;;;;;8.38;1.87;;;;;;;;;;4204399;34;20089;-63
2022/05/28 06:47:55;;;;;;;7.10;1.48;;;;;;;;;;4204586;34;20116;-64
2022/05/28 06:53:09;;;;;;;6.10;1.87;;;;;;;;;;4204845;34;20109;-63
2022/05/28 06:55:36;;;;;;;5.22;1.80;;;;;;;;;;4204909;34;20136;-63
2022/05/28 06:58:04;;;;;;;6.72;1.60;;;;;;;;;;4204870;34;20113;-63
2022/05/28 07:00:30;;;;;;;4.28;1.73;;;;;;;;;;4204366;34;20121;-60
2022/05/28 07:02:56;;;;;;;8.48;2.05;;;;;;;;;;4204652;34;20519;-60
2022/05/28 07:05:23;;;;;;;4.68;2.37;;;;;;;;;;4204892;34;20208;-61
2022/05/28 07:07:48;;;;;;;7.95;1.70;;;;;;;;;;4204451;34;20130;-61
2022/05/28 07:10:15;;;;;;;3.08;1.60;;;;;;;;;;4204146;34;20140;-60
2022/05/28 07:12:41;;;;;;;8.43;2.00;;;;;;;;;;4204512;34;20512;-61
2022/05/28 07:15:07;;;;;;;5.50;1.60;;;;;;;;;;4204571;34;20212;-61
2022/05/28 07:17:33;;;;;;;14.70;4.12;;;;;;;;;;4204464;34;20106;-61
2022/05/28 07:19:59;;;;;;;3.55;1.75;;;;;;;;;;4204505;34;20466;-60
2022/05/28 07:22:25;;;;;;;9.07;2.55;;;;;;;;;;4204394;34;20549;-60
2022/05/28 07:24:51;;;;;;;4.30;2.08;;;;;;;;;;4204366;34;20122;-61
2022/05/28 07:27:18;;;;;;;12.52;5.55;;;;;;;;;;4204416;34;20209;-61
2022/05/28 07:29:44;;;;;;;5.53;2.47;;;;;;;;;;4204328;34;20185;-60
2022/05/28 07:32:10;;;;;;;12.55;2.30;;;;;;;;;;4204379;34;20117;-60
2022/05/28 07:34:36;;;;;;;17.60;6.75;;;;;;;;;;4204485;34;20106;-60
2022/05/28 07:37:03;;;;;;;7.62;2.10;;;;;;;;;;4204462;34;20185;-60
2022/05/28 07:39:29;;;;;;;5.00;2.03;;;;;;;;;;4204440;34;20654;-60
2022/05/28 07:41:55;;;;;;;6.18;2.10;;;;;;;;;;4202742;34;20169;-61
2022/05/28 07:44:21;;;;;;;7.60;2.10;;;;;;;;;;4203893;34;20108;-61
2022/05/28 07:46:47;;;;;;;10.30;2.12;;;;;;;;;;4204254;34;20212;-60
2022/05/28 07:49:13;;;;;;;6.05;2.22;;;;;;;;;;4204134;34;20098;-61
2022/05/28 07:51:39;;;;;;;12.57;3.50;;;;;;;;;;4204263;34;20157;-57
2022/05/28 07:54:06;;;;;;;7.97;2.30;;;;;;;;;;4204274;34;20602;-57
2022/05/28 07:56:32;;;;;;;9.55;2.35;;;;;;;;;;4191300;34;20684;-57
2022/05/28 07:58:59;;;;;;;12.37;2.05;;;;;;;;;;4203997;34;20130;-56
2022/05/28 08:01:27;;;;;;;6.10;2.15;;;;;;;;;;4204053;34;20112;-57
2022/05/28 08:03:55;;;;;;;11.90;6.40;;;;;;;;;;4204093;34;20144;-58
2022/05/28 08:06:22;;;;;;;3.78;2.15;;;;;;;;;;4204022;34;20822;-56
2022/05/28 08:08:49;;;;;;;5.43;2.15;;;;;;;;;;4204051;34;20114;-59
2022/05/28 08:11:15;;;;;;;1.17;1.10;;;;;;;;;;4203975;34;20112;-57
2022/05/28 08:13:41;;;;;;;0.90;0.90;;;;;;;;;;4203972;34;20188;-58
2022/05/28 08:16:07;;;;;;;1.40;1.30;;;;;;;;;;4203924;34;20470;-58
2022/05/28 08:18:36;;;;;;;0.90;0.90;;;;;;;;;;4203802;34;20094;-58
2022/05/28 08:23:48;;;;;;;1.00;1.00;;;;;;;;;;4203821;34;20513;-58
2022/05/28 08:26:15;;;;;;;1.00;1.00;;;;;;;;;;4203839;34;20209;-58
2022/05/28 08:28:42;;;;;;;0.90;0.90;;;;;;;;;;4203651;34;20114;-57
2022/05/28 08:31:08;;;;;;;2.42;1.73;;;;;;;;;;4203792;34;20192;-57
2022/05/28 08:33:34;;;;;;;1.30;1.20;;;;;;;;;;4203673;34;20562;-58
2022/05/28 08:36:00;;;;;;;1.20;1.20;;;;;;;;;;4203647;34;20258;-57
2022/05/28 08:38:27;;;;;;;1.40;1.30;;;;;;;;;;4203691;34;20129;-58
2022/05/28 08:40:58;;;;;;;1.00;1.00;;;;;;;;;;4203863;34;20098;-57
2022/05/28 08:43:27;;;;;;;2.65;1.80;;;;;;;;;;4203801;34;20133;-57
2022/05/28 08:45:54;;;;;;;2.72;2.15;;;;;;;;;;4203739;34;20106;-57
2022/05/28 08:48:53;;;;;;;1.33;1.25;;;;;;;;;;4203359;34;20129;-57
2022/05/28 08:51:34;;;;;;;0.95;0.95;;;;;;;;;;4201701;34;20114;-56
2022/05/28 08:54:08;;;;;;;1.77;1.67;;;;;;;;;;4203836;34;20109;-54
2022/05/28 08:56:36;;;;;;;1.33;1.25;;;;;;;;;;4204425;34;20125;-54
2022/05/28 08:59:09;;;;;;;2.60;1.50;;;;;;;;;;4205592;34;20114;-54
2022/05/28 09:01:37;;;;;;;1.37;1.37;;;;;;;;;;4204512;34;20534;-55
2022/05/28 09:04:12;;;;;;;5.82;3.08;;;;;;;;;;4205739;34;20182;-58
2022/05/28 09:06:41;;;;;;;3.17;1.92;;;;;;;;;;4204548;34;20520;-58
2022/05/28 09:09:10;;;;;;;5.22;2.10;;;;;;;;;;4204319;34;20122;-57
2022/05/28 09:11:50;;;;;;;1.92;1.58;;;;;;;;;;4204234;34;20137;-58
2022/05/28 09:14:35;;;;;;;0.95;0.95;;;;;;;;;;4204128;34;20128;-58
2022/05/28 09:17:03;;;;;;;6.05;2.75;;;;;;;;;;4205629;34;20133;-58
2022/05/28 09:19:35;;;;;;;13.07;5.75;;;;;;;;;;4204207;34;20094;-59
2022/05/28 09:22:01;;;;;;;5.68;3.25;;;;;;;;;;4205559;34;20541;-58
2022/05/28 09:24:31;;;;;;;3.55;2.37;;;;;;;;;;4205464;34;20111;-58
2022/05/28 09:27:05;;;;;;;9.43;3.72;;;;;;;;;;4205532;34;20121;-54
2022/05/28 09:29:44;;;;;;;1.87;1.33;;;;;;;;;;4192316;34;20522;-57
2022/05/28 09:32:23;;;;;;;10.27;4.65;;;;;;;;;;4205386;34;20211;-58
2022/05/28 09:34:48;;;;;;;3.00;2.05;;;;;;;;;;4205493;34;20122;-58
2022/05/28 09:37:25;;;;;;;3.25;2.40;;;;;;;;;;4205319;34;20109;-58
2022/05/28 09:40:03;;;;;;;2.30;2.10;;;;;;;;;;4203967;34;20125;-58
2022/05/28 09:42:48;;;;;;;2.33;1.98;;;;;;;;;;4203922;34;20550;-58
2022/05/28 09:45:22;;;;;;;2.47;1.85;;;;;;;;;;4203980;34;20117;-58
2022/05/28 09:47:50;;;;;;;1.95;1.85;;;;;;;;;;4205344;34;21732;-58
2022/05/28 09:50:26;;;;;;;9.88;4.15;;;;;;;;;;4205245;34;20197;-58
2022/05/28 09:56:13;;;;;;;3.47;1.50;;;;;;;;;;4205299;34;20188;-58
2022/05/28 09:58:40;;;;;;;9.40;2.85;;;;;;;;;;4205119;34;20109;-58
2022/05/28 10:01:26;;;;;;;2.40;2.00;;;;;;;;;;4205202;34;20588;-58
2022/05/28 10:06:46;;;;;;;5.00;3.33;;;;;;;;;;4204121;34;20100;-58
2022/05/28 10:09:17;;;;;;;2.15;1.92;;;;;;;;;;4205153;34;20489;-58
2022/05/28 10:12:23;;;;;;;2.12;1.92;;;;;;;;;;4205208;34;20102;-58
2022/05/28 10:15:14;;;;;;;1.73;1.60;;;;;;;;;;4205214;34;20134;-58
2022/05/28 10:17:51;;;;;;;1.65;1.52;;;;;;;;;;4205346;34;20204;-61
2022/05/28 10:20:19;;;;;;;6.78;3.55;;;;;;;;;;4205309;34;20100;-57
2022/05/28 10:22:47;;;;;;;7.32;4.18;;;;;;;;;;4204983;34;20209;-61
2022/05/28 10:25:33;;;;;;;3.22;2.92;;;;;;;;;;4203666;34;20116;-58
2022/05/28 10:27:59;;;;;;;6.18;2.25;;;;;;;;;;4203622;34;20117;-58
2022/05/28 10:30:36;;;;;;;1.85;1.75;;;;;;;;;;4203506;34;20118;-57
2022/05/28 10:33:06;;;;;;;7.20;2.40;;;;;;;;;;4203514;34;20180;-57
2022/05/28 10:35:32;;;;;;;2.80;2.17;;;;;;;;;;4203490;34;20129;-57
2022/05/28 10:38:07;;;;;;;5.57;2.30;;;;;;;;;;4203482;34;20209;-57
2022/05/28 10:40:33;;;;;;;1.98;1.77;;;;;;;;;;4205119;34;20125;-57
2022/05/28 10:43:04;;;;;;;8.45;2.50;;;;;;;;;;4204963;34;20595;-57
2022/05/28 10:45:42;;;;;;;1.70;1.58;;;;;;;;;;4203692;34;20121;-57
2022/05/28 10:48:27;;;;;;;10.18;4.37;;;;;;;;;;4204715;34;20672;-58
2022/05/28 10:51:28;;;;;;;7.53;3.87;;;;;;;;;;4204813;34;20197;-58
2022/05/28 10:53:57;;;;;;;8.25;3.75;;;;;;;;;;4203351;34;20736;-59
2022/05/28 10:56:41;;;;;;;10.82;3.97;;;;;;;;;;4204789;34;20208;-59
2022/05/28 10:59:17;;;;;;;6.68;3.83;;;;;;;;;;4205058;34;20125;-59
2022/05/28 11:01:49;;;;;;;5.05;3.20;;;;;;;;;;4204711;34;20130;-58
2022/05/28 11:04:52;;;;;;;14.45;5.20;;;;;;;;;;4203393;34;20133;-58
2022/05/28 11:07:27;;;;;;;13.23;6.25;;;;;;;;;;4178266;34;20214;-54
2022/05/28 11:10:00;;;;;;;8.02;4.85;;;;;;;;;;4203370;34;20117;-57
2022/05/28 11:12:57;;;;;;;23.05;6.80;;;;;;;;;;4204788;34;20121;-58
2022/05/28 11:15:52;;;;;;;10.45;5.10;;;;;;;;;;4204644;34;20098;-58
2022/05/28 11:18:25;;;;;;;13.45;6.57;;;;;;;;;;4188777;34;20109;-58
2022/05/28 11:21:11;;;;;;;12.70;7.12;;;;;;;;;;4204558;34;20567;-57
2022/05/28 11:23:57;;;;;;;10.73;6.50;;;;;;;;;;4203392;34;20141;-57
2022/05/28 11:26:47;;;;;;;11.18;5.50;;;;;;;;;;4203145;34;20192;-57
2022/05/28 11:29:33;;;;;;;12.57;5.43;;;;;;;;;;4204728;34;20116;-58
2022/05/28 11:32:05;;;;;;;11.23;4.32;;;;;;;;;;4203119;34;20190;-54
2022/05/28 11:34:40;;;;;;;5.50;3.58;;;;;;;;;;4204501;34;20201;-53
2022/05/28 11:37:17;;;;;;;5.30;3.67;;;;;;;;;;4192055;34;20137;-58
2022/05/28 11:40:05;;;;;;;8.90;5.93;;;;;;;;;;4202857;34;20129;-58
2022/05/28 11:42:52;;;;;;;6.75;3.70;;;;;;;;;;4202848;34;20518;-58
2022/05/28 11:45:40;;;;;;;5.65;2.58;;;;;;;;;;4204585;34;20125;-58
2022/05/28 11:51:27;;;;;;;4.95;2.30;;;;;;;;;;4204359;34;20377;-58
2022/05/28 11:51:29;;;;;;;6.37;2.70;;;;;;;;;;4203533;34;20129;-58
2022/05/28 11:54:05;;;;;;;7.82;3.17;;;;;;;;;;4203186;34;20193;-58
2022/05/28 11:56:32;;;;;;;5.22;3.25;;;;;;;;;;4202889;34;20124;-58
2022/05/28 11:59:05;;;;;;;6.53;3.15;;;;;;;;;;4204552;34;20106;-59
2022/05/28 12:01:52;;;;;;;5.05;2.97;;;;;;;;;;4203072;34;20608;-58
2022/05/28 12:04:19;;;;;;;7.60;3.25;;;;;;;;;;4203998;34;20129;-58
2022/05/28 12:06:56;;;;;;;6.75;3.37;;;;;;;;;;4203044;34;20089;-57
2022/05/28 12:09:26;;;;;;;10.82;4.45;;;;;;;;;;4202971;34;20531;-59
2022/05/28 12:12:01;;;;;;;7.22;3.95;;;;;;;;;;4204034;34;20122;-58
2022/05/28 12:14:31;;;;;;;6.55;3.95;;;;;;;;;;4203930;34;20446;-59
2022/05/28 12:17:00;;;;;;;8.48;4.30;;;;;;;;;;4204133;34;20096;-57
2022/05/28 12:19:26;;;;;;;7.35;3.70;;;;;;;;;;4204320;34;20528;-57
2022/05/28 12:21:52;;;;;;;5.20;3.67;;;;;;;;;;4203965;34;20110;-57
2022/05/28 12:24:18;;;;;;;8.98;3.85;;;;;;;;;;4203930;34;20519;-65
2022/05/28 12:29:47;;;;;;;8.55;3.30;;;;;;;;;;4202696;34;20193;-61
2022/05/28 12:32:19;;;;;;;7.55;3.65;;;;;;;;;;4205698;34;20447;-61
2022/05/28 12:34:58;;;;;;;6.07;3.90;;;;;;;;;;4206116;34;20112;-60
2022/05/28 12:37:36;;;;;;;7.82;3.80;;;;;;;;;;4205706;34;20509;-61
2022/05/28 12:40:26;;;;;;;7.12;3.28;;;;;;;;;;4205927;34;20128;-63
2022/05/28 12:42:53;;;;;;;6.97;3.72;;;;;;;;;;4205740;34;20485;-62
2022/05/28 12:45:38;;;;;;;8.93;4.45;;;;;;;;;;4205904;34;20502;-62
2022/05/28 12:48:07;;;;;;;3.70;2.72;;;;;;;;;;4204433;34;20121;-62
2022/05/28 12:50:51;;;;;;;8.18;3.10;;;;;;;;;;4204350;34;20502;-62
2022/05/28 12:53:19;;;;;;;6.87;3.30;;;;;;;;;;4204296;34;20589;-62
2022/05/28 12:55:45;;;;;;;11.40;6.15;;;;;;;;;;4204323;34;20118;-62
2022/05/28 12:58:32;;;;;;;14.80;10.55;;;;;;;;;;4192753;34;20612;-62
2022/05/28 13:01:01;;;;;;;15.18;11.40;;;;;;;;;;4204353;34;20099;-61
2022/05/28 13:03:31;;;;;;;14.68;8.25;;;;;;;;;;4205584;34;20120;-62
2022/05/28 13:06:11;;;;;;;15.57;10.13;;;;;;;;;;4204372;34;20134;-62
2022/05/28 13:08:49;;;;;;;16.05;10.40;;;;;;;;;;4205634;34;20113;-61
2022/05/28 13:11:37;;;;;;;8.98;6.85;;;;;;;;;;4205728;34;20381;-64
2022/05/28 13:14:36;;;;;;;5.95;4.28;;;;;;;;;;4204215;34;20116;-61
2022/05/28 13:17:27;;;;;;;12.07;8.15;;;;;;;;;;4205941;34;20205;-59
2022/05/28 13:20:03;;;;;;;17.90;11.82;;;;;;;;;;4205441;34;20459;-60
2022/05/28 13:23:00;;;;;;;17.37;11.57;;;;;;;;;;4204040;34;20110;-60
2022/05/28 13:25:35;;;;;;;17.83;10.75;;;;;;;;;;4205781;34;20116;-64
2022/05/28 13:28:49;;;;;;;21.48;12.23;;;;;;;;;;4205654;34;20112;-61
2022/05/28 13:31:18;;;;;;;15.73;10.10;;;;;;;;;;4199201;34;20462;-63
2022/05/28 13:33:44;;;;;;;18.50;11.85;;;;;;;;;;4205438;34;20101;-62
2022/05/28 13:36:13;;;;;;;50.40;26.48;;;;;;;;;;4205727;34;20094;-62
2022/05/28 13:38:41;;;;;;;22.52;12.37;;;;;;;;;;4203808;34;20193;-64
2022/05/28 13:41:11;;;;;;;10.60;7.82;;;;;;;;;;4205260;34;20213;-63
2022/05/28 13:43:40;;;;;;;11.50;8.52;;;;;;;;;;4205419;34;20434;-62
2022/05/28 13:46:09;;;;;;;8.75;6.80;;;;;;;;;;4205620;34;20137;-62
2022/05/28 13:48:39;;;;;;;8.77;6.37;;;;;;;;;;4204006;34;20101;-63
2022/05/28 13:51:08;;;;;;;10.02;6.30;;;;;;;;;;4205599;34;20200;-60
2022/05/28 13:53:38;;;;;;;10.30;5.50;;;;;;;;;;4205184;34;20097;-62
2022/05/28 13:56:04;;;;;;;7.55;5.80;;;;;;;;;;4205264;34;20427;-63
2022/05/28 13:58:36;;;;;;;10.15;6.57;;;;;;;;;;4205327;34;20133;-60
2022/05/28 14:01:04;;;;;;;6.40;3.50;;;;;;;;;;4205398;34;20200;-61
2022/05/28 14:03:39;;;;;;;7.55;5.12;;;;;;;;;;4205260;34;20183;-61
2022/05/28 14:06:29;;;;;;;11.65;5.85;;;;;;;;;;4205200;34;20188;-62
2022/05/28 14:08:57;;;;;;;8.52;5.85;;;;;;;;;;4203776;34;20102;-62
2022/05/28 14:11:31;;;;;;;8.35;4.20;;;;;;;;;;4205277;34;20112;-62
2022/05/28 14:14:16;;;;;;;5.57;3.72;;;;;;;;;;4205117;34;20450;-64
2022/05/28 14:16:44;;;;;;;5.47;3.45;;;;;;;;;;4205356;34;20125;-62
2022/05/28 14:19:19;;;;;;;3.85;2.92;;;;;;;;;;4205067;34;20194;-63
2022/05/28 14:21:49;;;;;;;7.35;3.05;;;;;;;;;;4203729;34;20133;-68
2022/05/28 14:24:27;;;;;;;3.78;3.28;;;;;;;;;;4204773;34;20512;-63
2022/05/28 14:27:17;;;;;;;5.50;3.30;;;;;;;;;;4201680;34;20216;-63
2022/05/28 14:29:47;;;;;;;4.97;2.80;;;;;;;;;;4201480;34;20133;-61
2022/05/28 14:32:15;;;;;;;4.07;2.42;;;;;;;;;;4201384;34;20129;-62
2022/05/28 14:34:43;;;;;;;5.72;2.45;;;;;;;;;;4201522;34;20110;-62
2022/05/28 14:37:31;;;;;;;3.42;2.60;;;;;;;;;;4201352;34;20113;-62
2022/05/28 14:39:58;;;;;;;6.05;2.53;;;;;;;;;;4203890;34;20190;-63
2022/05/28 14:42:31;;;;;;;4.45;2.85;;;;;;;;;;4203441;34;20091;-62
2022/05/28 14:45:00;;;;;;;3.47;2.87;;;;;;;;;;4203460;34;20526;-62
2022/05/28 14:47:32;;;;;;;5.70;3.37;;;;;;;;;;4205026;34;20132;-61
2022/05/28 14:50:00;;;;;;;4.18;3.35;;;;;;;;;;4203475;34;20200;-62
2022/05/28 14:52:32;;;;;;;4.72;3.00;;;;;;;;;;4202472;34;20109;-62
2022/05/28 14:55:09;;;;;;;3.33;2.33;;;;;;;;;;4204730;34;20109;-62
2022/05/28 14:57:40;;;;;;;4.97;3.15;;;;;;;;;;4204896;34;20205;-64
2022/05/28 15:00:13;;;;;;;4.35;3.03;;;;;;;;;;4204660;34;20112;-61
2022/05/28 15:02:40;;;;;;;3.50;3.17;;;;;;;;;;4204786;34;20177;-62
2022/05/28 15:05:09;;;;;;;4.60;3.22;;;;;;;;;;4204536;34;20212;-63
2022/05/28 15:07:37;;;;;;;5.72;4.10;;;;;;;;;;4204492;34;20217;-63
2022/05/28 15:10:04;;;;;;;5.97;3.60;;;;;;;;;;4204538;34;20442;-64
2022/05/28 15:12:32;;;;;;;5.22;2.97;;;;;;;;;;4203064;34;20157;-63
2022/05/28 15:14:59;;;;;;;5.70;3.17;;;;;;;;;;4204779;34;20192;-61
2022/05/28 15:17:27;;;;;;;5.15;3.08;;;;;;;;;;4204527;34;20116;-62
2022/05/28 15:19:54;;;;;;;4.10;3.05;;;;;;;;;;4204503;34;20102;-62
2022/05/28 15:22:28;;;;;;;6.15;3.65;;;;;;;;;;4204490;34;20106;-62
2022/05/28 15:24:54;;;;;;;6.77;3.80;;;;;;;;;;4204420;34;20098;-62
2022/05/28 15:27:22;;;;;;;4.32;3.30;;;;;;;;;;4204478;34;20208;-62
2022/05/28 15:29:48;;;;;;;4.75;3.55;;;;;;;;;;4204262;34;20181;-62
2022/05/28 15:32:16;;;;;;;6.78;4.25;;;;;;;;;;4204295;34;20116;-62
2022/05/28 15:34:43;;;;;;;4.93;3.55;;;;;;;;;;4202904;34;20099;-62
2022/05/28 15:39:54;;;;;;;5.03;2.87;;;;;;;;;;4204446;34;20139;-62
2022/05/28 15:42:27;;;;;;;4.50;3.10;;;;;;;;;;4204300;34;20470;-62
2022/05/28 15:44:54;;;;;;;5.57;3.30;;;;;;;;;;4204221;34;20177;-62
2022/05/28 15:47:20;;;;;;;7.65;2.97;;;;;;;;;;4204663;34;20115;-62
2022/05/28 15:49:46;;;;;;;4.68;3.20;;;;;;;;;;4204123;34;20465;-62